sensor_id;sensor_type;location;lat;lon;timestamp;P1;durP1;ratioP1;P2;durP2;ratioP2
38513;SDS011;24282;48.400;10.808;2023-07-08T00:00:13;4.40;;;3.70;;
38513;SDS011;24282;48.400;10.808;2023-07-08T00:02:45;4.75;;;3.85;;
38513;SDS011;24282;48.400;10.808;2023-07-08T00:05:12;4.13;;;3.55;;
38513;SDS011;24282;48.400;10.808;2023-07-08T00:07:40;4.88;;;3.97;;
38513;SDS011;24282;48.400;10.808;2023-07-08T00:10:13;4.30;;;3.35;;
38513;SDS011;24282;48.400;10.808;2023-07-08T00:12:40;4.75;;;3.88;;
38513;SDS011;24282;48.400;10.808;2023-07-08T00:15:08;5.47;;;3.47;;
38513;SDS011;24282;48.400;10.808;2023-07-08T00:17:34;4.68;;;3.63;;
38513;SDS011;24282;48.400;10.808;2023-07-08T00:19:59;4.43;;;4.03;;
38513;SDS011;24282;48.400;10.808;2023-07-08T00:22:25;4.68;;;4.18;;
38513;SDS011;24282;48.400;10.808;2023-07-08T00:24:51;4.60;;;3.58;;
38513;SDS011;24282;48.400;10.808;2023-07-08T00:27:17;4.50;;;4.00;;
38513;SDS011;24282;48.400;10.808;2023-07-08T00:29:43;4.32;;;3.22;;
38513;SDS011;24282;48.400;10.808;2023-07-08T00:32:10;5.32;;;3.33;;
38513;SDS011;24282;48.400;10.808;2023-07-08T00:34:37;4.88;;;4.32;;
38513;SDS011;24282;48.400;10.808;2023-07-08T00:37:03;4.40;;;3.53;;
38513;SDS011;24282;48.400;10.808;2023-07-08T00:39:33;5.05;;;3.70;;
38513;SDS011;24282;48.400;10.808;2023-07-08T00:42:02;5.15;;;4.13;;
38513;SDS011;24282;48.400;10.808;2023-07-08T00:44:37;4.10;;;3.15;;
38513;SDS011;24282;48.400;10.808;2023-07-08T00:47:08;4.82;;;3.70;;
38513;SDS011;24282;48.400;10.808;2023-07-08T00:52:26;4.35;;;3.65;;
38513;SDS011;24282;48.400;10.808;2023-07-08T00:54:54;4.75;;;3.75;;
38513;SDS011;24282;48.400;10.808;2023-07-08T00:57:23;4.38;;;3.63;;
38513;SDS011;24282;48.400;10.808;2023-07-08T01:02:23;4.50;;;3.90;;
38513;SDS011;24282;48.400;10.808;2023-07-08T01:05:06;6.00;;;3.97;;
38513;SDS011;24282;48.400;10.808;2023-07-08T01:07:41;4.88;;;3.65;;
38513;SDS011;24282;48.400;10.808;2023-07-08T01:10:10;4.18;;;3.78;;
38513;SDS011;24282;48.400;10.808;2023-07-08T01:12:46;4.80;;;4.00;;
38513;SDS011;24282;48.400;10.808;2023-07-08T01:15:14;4.45;;;3.90;;
38513;SDS011;24282;48.400;10.808;2023-07-08T01:17:41;4.10;;;3.70;;
38513;SDS011;24282;48.400;10.808;2023-07-08T01:20:08;3.97;;;3.35;;
38513;SDS011;24282;48.400;10.808;2023-07-08T01:22:38;5.38;;;3.88;;
38513;SDS011;24282;48.400;10.808;2023-07-08T01:25:05;4.53;;;3.63;;
38513;SDS011;24282;48.400;10.808;2023-07-08T01:27:34;4.35;;;3.50;;
38513;SDS011;24282;48.400;10.808;2023-07-08T01:30:03;4.75;;;3.78;;
38513;SDS011;24282;48.400;10.808;2023-07-08T01:32:31;3.90;;;3.50;;
38513;SDS011;24282;48.400;10.808;2023-07-08T01:35:02;4.80;;;3.67;;
38513;SDS011;24282;48.400;10.808;2023-07-08T01:37:31;5.03;;;3.38;;
38513;SDS011;24282;48.400;10.808;2023-07-08T01:40:14;4.38;;;3.67;;
38513;SDS011;24282;48.400;10.808;2023-07-08T01:42:40;4.47;;;3.55;;
38513;SDS011;24282;48.400;10.808;2023-07-08T01:45:16;5.28;;;4.05;;
38513;SDS011;24282;48.400;10.808;2023-07-08T01:47:45;4.30;;;3.33;;
38513;SDS011;24282;48.400;10.808;2023-07-08T01:50:15;4.63;;;4.10;;
38513;SDS011;24282;48.400;10.808;2023-07-08T01:52:41;4.68;;;3.55;;
38513;SDS011;24282;48.400;10.808;2023-07-08T01:55:07;4.93;;;3.83;;
38513;SDS011;24282;48.400;10.808;2023-07-08T01:57:33;4.20;;;3.60;;
38513;SDS011;24282;48.400;10.808;2023-07-08T01:59:59;4.15;;;3.25;;
38513;SDS011;24282;48.400;10.808;2023-07-08T02:02:25;5.10;;;3.95;;
38513;SDS011;24282;48.400;10.808;2023-07-08T02:04:51;3.63;;;3.15;;
38513;SDS011;24282;48.400;10.808;2023-07-08T02:07:16;4.70;;;3.75;;
38513;SDS011;24282;48.400;10.808;2023-07-08T02:09:42;5.10;;;3.53;;
38513;SDS011;24282;48.400;10.808;2023-07-08T02:12:08;4.30;;;3.78;;
38513;SDS011;24282;48.400;10.808;2023-07-08T02:14:33;4.03;;;3.63;;
38513;SDS011;24282;48.400;10.808;2023-07-08T02:16:59;4.55;;;3.70;;
38513;SDS011;24282;48.400;10.808;2023-07-08T02:19:25;3.70;;;3.10;;
38513;SDS011;24282;48.400;10.808;2023-07-08T02:21:51;4.95;;;4.10;;
38513;SDS011;24282;48.400;10.808;2023-07-08T02:24:20;4.03;;;3.53;;
38513;SDS011;24282;48.400;10.808;2023-07-08T02:26:47;4.85;;;3.75;;
38513;SDS011;24282;48.400;10.808;2023-07-08T02:29:13;3.90;;;2.92;;
38513;SDS011;24282;48.400;10.808;2023-07-08T02:31:38;4.00;;;3.28;;
38513;SDS011;24282;48.400;10.808;2023-07-08T02:34:04;4.32;;;3.50;;
38513;SDS011;24282;48.400;10.808;2023-07-08T02:36:30;3.78;;;3.22;;
38513;SDS011;24282;48.400;10.808;2023-07-08T02:38:56;4.35;;;3.28;;
38513;SDS011;24282;48.400;10.808;2023-07-08T02:41:21;4.05;;;3.05;;
38513;SDS011;24282;48.400;10.808;2023-07-08T02:43:47;3.55;;;3.00;;
38513;SDS011;24282;48.400;10.808;2023-07-08T02:46:13;3.67;;;3.28;;
38513;SDS011;24282;48.400;10.808;2023-07-08T02:48:38;4.22;;;3.38;;
38513;SDS011;24282;48.400;10.808;2023-07-08T02:51:04;3.60;;;2.95;;
38513;SDS011;24282;48.400;10.808;2023-07-08T02:53:31;3.80;;;3.17;;
38513;SDS011;24282;48.400;10.808;2023-07-08T02:55:57;4.90;;;3.25;;
38513;SDS011;24282;48.400;10.808;2023-07-08T02:58:23;3.30;;;2.88;;
38513;SDS011;24282;48.400;10.808;2023-07-08T03:00:52;5.03;;;3.13;;
38513;SDS011;24282;48.400;10.808;2023-07-08T03:03:19;4.72;;;3.47;;
38513;SDS011;24282;48.400;10.808;2023-07-08T03:05:53;3.28;;;2.55;;
38513;SDS011;24282;48.400;10.808;2023-07-08T03:08:24;4.40;;;3.58;;
38513;SDS011;24282;48.400;10.808;2023-07-08T03:10:54;4.43;;;3.25;;
38513;SDS011;24282;48.400;10.808;2023-07-08T03:13:22;4.70;;;3.45;;
38513;SDS011;24282;48.400;10.808;2023-07-08T03:15:48;5.95;;;3.47;;
38513;SDS011;24282;48.400;10.808;2023-07-08T03:18:13;4.20;;;3.63;;
38513;SDS011;24282;48.400;10.808;2023-07-08T03:20:40;4.45;;;3.67;;
38513;SDS011;24282;48.400;10.808;2023-07-08T03:23:05;4.15;;;3.55;;
38513;SDS011;24282;48.400;10.808;2023-07-08T03:25:31;4.07;;;3.38;;
38513;SDS011;24282;48.400;10.808;2023-07-08T03:27:58;5.47;;;3.45;;
38513;SDS011;24282;48.400;10.808;2023-07-08T03:30:25;4.70;;;3.47;;
38513;SDS011;24282;48.400;10.808;2023-07-08T03:32:52;4.15;;;3.50;;
38513;SDS011;24282;48.400;10.808;2023-07-08T03:35:20;4.38;;;3.40;;
38513;SDS011;24282;48.400;10.808;2023-07-08T03:37:47;4.97;;;3.42;;
38513;SDS011;24282;48.400;10.808;2023-07-08T03:40:13;4.00;;;3.33;;
38513;SDS011;24282;48.400;10.808;2023-07-08T03:42:38;4.13;;;3.15;;
38513;SDS011;24282;48.400;10.808;2023-07-08T03:45:05;3.95;;;3.05;;
38513;SDS011;24282;48.400;10.808;2023-07-08T03:47:31;5.13;;;3.13;;
38513;SDS011;24282;48.400;10.808;2023-07-08T03:49:59;4.18;;;3.47;;
38513;SDS011;24282;48.400;10.808;2023-07-08T03:52:24;3.95;;;3.30;;
38513;SDS011;24282;48.400;10.808;2023-07-08T03:54:50;4.07;;;3.03;;
38513;SDS011;24282;48.400;10.808;2023-07-08T03:57:16;5.03;;;3.50;;
38513;SDS011;24282;48.400;10.808;2023-07-08T03:59:44;3.80;;;3.38;;
38513;SDS011;24282;48.400;10.808;2023-07-08T04:02:10;4.20;;;3.20;;
38513;SDS011;24282;48.400;10.808;2023-07-08T04:04:37;4.25;;;3.28;;
38513;SDS011;24282;48.400;10.808;2023-07-08T04:07:07;3.90;;;3.13;;
38513;SDS011;24282;48.400;10.808;2023-07-08T04:09:32;4.43;;;2.70;;
38513;SDS011;24282;48.400;10.808;2023-07-08T04:11:58;4.07;;;3.40;;
38513;SDS011;24282;48.400;10.808;2023-07-08T04:14:24;3.78;;;3.10;;
38513;SDS011;24282;48.400;10.808;2023-07-08T04:16:51;5.65;;;3.20;;
38513;SDS011;24282;48.400;10.808;2023-07-08T04:19:22;3.17;;;2.60;;
38513;SDS011;24282;48.400;10.808;2023-07-08T04:21:48;3.90;;;3.05;;
38513;SDS011;24282;48.400;10.808;2023-07-08T04:24:14;3.88;;;3.20;;
38513;SDS011;24282;48.400;10.808;2023-07-08T04:26:42;4.88;;;3.38;;
38513;SDS011;24282;48.400;10.808;2023-07-08T04:29:15;4.20;;;2.83;;
38513;SDS011;24282;48.400;10.808;2023-07-08T04:31:42;3.60;;;2.97;;
38513;SDS011;24282;48.400;10.808;2023-07-08T04:34:08;6.43;;;3.28;;
38513;SDS011;24282;48.400;10.808;2023-07-08T04:36:34;4.18;;;3.20;;
38513;SDS011;24282;48.400;10.808;2023-07-08T04:39:00;4.10;;;3.20;;
38513;SDS011;24282;48.400;10.808;2023-07-08T04:41:27;4.68;;;3.53;;
38513;SDS011;24282;48.400;10.808;2023-07-08T04:43:53;3.80;;;2.92;;
38513;SDS011;24282;48.400;10.808;2023-07-08T04:46:22;4.20;;;3.80;;
38513;SDS011;24282;48.400;10.808;2023-07-08T04:49:07;4.90;;;3.45;;
38513;SDS011;24282;48.400;10.808;2023-07-08T04:51:40;4.07;;;2.90;;
38513;SDS011;24282;48.400;10.808;2023-07-08T04:54:06;3.72;;;3.20;;
38513;SDS011;24282;48.400;10.808;2023-07-08T04:56:37;3.78;;;3.10;;
38513;SDS011;24282;48.400;10.808;2023-07-08T04:59:08;3.28;;;2.97;;
38513;SDS011;24282;48.400;10.808;2023-07-08T05:01:35;3.17;;;2.70;;
38513;SDS011;24282;48.400;10.808;2023-07-08T05:04:00;4.55;;;3.55;;
38513;SDS011;24282;48.400;10.808;2023-07-08T05:06:27;3.28;;;2.88;;
38513;SDS011;24282;48.400;10.808;2023-07-08T05:08:53;3.95;;;3.10;;
38513;SDS011;24282;48.400;10.808;2023-07-08T05:11:18;3.90;;;2.75;;
38513;SDS011;24282;48.400;10.808;2023-07-08T05:13:44;5.05;;;2.83;;
38513;SDS011;24282;48.400;10.808;2023-07-08T05:16:10;3.70;;;3.13;;
38513;SDS011;24282;48.400;10.808;2023-07-08T05:18:35;4.18;;;3.42;;
38513;SDS011;24282;48.400;10.808;2023-07-08T05:21:01;3.03;;;2.53;;
38513;SDS011;24282;48.400;10.808;2023-07-08T05:23:28;3.88;;;2.88;;
38513;SDS011;24282;48.400;10.808;2023-07-08T05:25:53;4.10;;;3.28;;
38513;SDS011;24282;48.400;10.808;2023-07-08T05:28:19;3.42;;;2.78;;
38513;SDS011;24282;48.400;10.808;2023-07-08T05:30:46;3.40;;;2.70;;
38513;SDS011;24282;48.400;10.808;2023-07-08T05:33:12;3.60;;;2.90;;
38513;SDS011;24282;48.400;10.808;2023-07-08T05:35:38;3.70;;;3.10;;
38513;SDS011;24282;48.400;10.808;2023-07-08T05:38:04;3.60;;;2.80;;
38513;SDS011;24282;48.400;10.808;2023-07-08T05:40:29;4.65;;;3.30;;
38513;SDS011;24282;48.400;10.808;2023-07-08T05:42:55;3.70;;;3.28;;
38513;SDS011;24282;48.400;10.808;2023-07-08T05:45:21;4.70;;;3.72;;
38513;SDS011;24282;48.400;10.808;2023-07-08T05:47:46;4.95;;;3.38;;
38513;SDS011;24282;48.400;10.808;2023-07-08T05:50:12;5.20;;;3.10;;
38513;SDS011;24282;48.400;10.808;2023-07-08T05:52:38;3.30;;;2.60;;
38513;SDS011;24282;48.400;10.808;2023-07-08T05:55:04;3.33;;;2.75;;
38513;SDS011;24282;48.400;10.808;2023-07-08T05:57:29;3.65;;;2.88;;
38513;SDS011;24282;48.400;10.808;2023-07-08T05:59:55;4.95;;;2.85;;
38513;SDS011;24282;48.400;10.808;2023-07-08T06:02:21;4.30;;;2.88;;
38513;SDS011;24282;48.400;10.808;2023-07-08T06:04:48;3.70;;;2.70;;
38513;SDS011;24282;48.400;10.808;2023-07-08T06:07:14;4.00;;;2.70;;
38513;SDS011;24282;48.400;10.808;2023-07-08T06:09:41;3.80;;;2.58;;
38513;SDS011;24282;48.400;10.808;2023-07-08T06:12:07;4.40;;;2.63;;
38513;SDS011;24282;48.400;10.808;2023-07-08T06:14:32;6.30;;;2.83;;
38513;SDS011;24282;48.400;10.808;2023-07-08T06:16:58;3.22;;;2.30;;
38513;SDS011;24282;48.400;10.808;2023-07-08T06:19:24;3.47;;;2.80;;
38513;SDS011;24282;48.400;10.808;2023-07-08T06:21:50;4.03;;;2.90;;
38513;SDS011;24282;48.400;10.808;2023-07-08T06:24:15;3.25;;;2.35;;
38513;SDS011;24282;48.400;10.808;2023-07-08T06:26:41;3.28;;;2.40;;
38513;SDS011;24282;48.400;10.808;2023-07-08T06:29:07;3.53;;;2.55;;
38513;SDS011;24282;48.400;10.808;2023-07-08T06:31:32;4.63;;;3.05;;
38513;SDS011;24282;48.400;10.808;2023-07-08T06:33:59;4.00;;;3.00;;
38513;SDS011;24282;48.400;10.808;2023-07-08T06:36:25;4.05;;;2.60;;
38513;SDS011;24282;48.400;10.808;2023-07-08T06:38:51;3.40;;;2.58;;
38513;SDS011;24282;48.400;10.808;2023-07-08T06:41:17;3.30;;;2.63;;
38513;SDS011;24282;48.400;10.808;2023-07-08T06:43:44;3.63;;;2.65;;
38513;SDS011;24282;48.400;10.808;2023-07-08T06:46:16;2.43;;;2.10;;
38513;SDS011;24282;48.400;10.808;2023-07-08T06:48:44;2.95;;;2.40;;
38513;SDS011;24282;48.400;10.808;2023-07-08T06:51:09;3.78;;;2.90;;
38513;SDS011;24282;48.400;10.808;2023-07-08T06:53:35;3.80;;;3.00;;
38513;SDS011;24282;48.400;10.808;2023-07-08T06:56:01;5.10;;;3.05;;
38513;SDS011;24282;48.400;10.808;2023-07-08T06:58:27;3.65;;;2.80;;
38513;SDS011;24282;48.400;10.808;2023-07-08T07:00:53;3.65;;;2.88;;
38513;SDS011;24282;48.400;10.808;2023-07-08T07:03:19;4.93;;;3.88;;
38513;SDS011;24282;48.400;10.808;2023-07-08T07:05:45;4.13;;;3.30;;
38513;SDS011;24282;48.400;10.808;2023-07-08T07:08:11;4.20;;;2.90;;
38513;SDS011;24282;48.400;10.808;2023-07-08T07:10:36;5.10;;;3.88;;
38513;SDS011;24282;48.400;10.808;2023-07-08T07:13:02;3.88;;;2.78;;
38513;SDS011;24282;48.400;10.808;2023-07-08T07:15:28;7.05;;;3.10;;
38513;SDS011;24282;48.400;10.808;2023-07-08T07:17:55;4.28;;;3.60;;
38513;SDS011;24282;48.400;10.808;2023-07-08T07:20:22;4.10;;;3.20;;
38513;SDS011;24282;48.400;10.808;2023-07-08T07:22:47;4.25;;;3.42;;
38513;SDS011;24282;48.400;10.808;2023-07-08T07:25:13;4.97;;;4.10;;
38513;SDS011;24282;48.400;10.808;2023-07-08T07:27:39;4.32;;;3.50;;
38513;SDS011;24282;48.400;10.808;2023-07-08T07:30:05;4.35;;;3.63;;
38513;SDS011;24282;48.400;10.808;2023-07-08T07:32:31;3.78;;;3.05;;
38513;SDS011;24282;48.400;10.808;2023-07-08T07:34:58;4.95;;;3.72;;
38513;SDS011;24282;48.400;10.808;2023-07-08T07:37:24;4.05;;;3.30;;
38513;SDS011;24282;48.400;10.808;2023-07-08T07:39:50;5.40;;;3.20;;
38513;SDS011;24282;48.400;10.808;2023-07-08T07:42:16;4.10;;;3.40;;
38513;SDS011;24282;48.400;10.808;2023-07-08T07:44:43;3.67;;;3.17;;
38513;SDS011;24282;48.400;10.808;2023-07-08T07:47:09;4.47;;;3.63;;
38513;SDS011;24282;48.400;10.808;2023-07-08T07:49:36;3.92;;;3.05;;
38513;SDS011;24282;48.400;10.808;2023-07-08T07:52:02;5.38;;;3.80;;
38513;SDS011;24282;48.400;10.808;2023-07-08T07:54:28;5.25;;;3.63;;
38513;SDS011;24282;48.400;10.808;2023-07-08T07:56:54;4.38;;;3.78;;
38513;SDS011;24282;48.400;10.808;2023-07-08T07:59:21;4.00;;;3.42;;
38513;SDS011;24282;48.400;10.808;2023-07-08T08:01:47;4.22;;;3.30;;
38513;SDS011;24282;48.400;10.808;2023-07-08T08:04:13;3.80;;;3.40;;
38513;SDS011;24282;48.400;10.808;2023-07-08T08:06:39;4.35;;;3.40;;
38513;SDS011;24282;48.400;10.808;2023-07-08T08:09:05;4.03;;;3.45;;
38513;SDS011;24282;48.400;10.808;2023-07-08T08:11:31;4.50;;;3.35;;
38513;SDS011;24282;48.400;10.808;2023-07-08T08:13:57;4.45;;;3.13;;
38513;SDS011;24282;48.400;10.808;2023-07-08T08:16:25;3.50;;;3.00;;
38513;SDS011;24282;48.400;10.808;2023-07-08T08:18:51;3.45;;;2.92;;
38513;SDS011;24282;48.400;10.808;2023-07-08T08:21:16;3.45;;;3.10;;
38513;SDS011;24282;48.400;10.808;2023-07-08T08:23:42;3.53;;;2.97;;
38513;SDS011;24282;48.400;10.808;2023-07-08T08:26:08;3.80;;;3.28;;
38513;SDS011;24282;48.400;10.808;2023-07-08T08:28:34;3.63;;;3.00;;
38513;SDS011;24282;48.400;10.808;2023-07-08T08:31:00;3.83;;;2.92;;
38513;SDS011;24282;48.400;10.808;2023-07-08T08:33:25;3.60;;;3.15;;
38513;SDS011;24282;48.400;10.808;2023-07-08T08:35:51;3.35;;;2.92;;
38513;SDS011;24282;48.400;10.808;2023-07-08T08:38:17;5.55;;;2.92;;
38513;SDS011;24282;48.400;10.808;2023-07-08T08:40:43;4.00;;;3.20;;
38513;SDS011;24282;48.400;10.808;2023-07-08T08:43:22;4.00;;;3.38;;
38513;SDS011;24282;48.400;10.808;2023-07-08T08:45:57;4.68;;;4.07;;
38513;SDS011;24282;48.400;10.808;2023-07-08T08:48:29;5.18;;;3.38;;
38513;SDS011;24282;48.400;10.808;2023-07-08T08:50:59;4.97;;;3.63;;
38513;SDS011;24282;48.400;10.808;2023-07-08T08:53:36;4.43;;;3.17;;
38513;SDS011;24282;48.400;10.808;2023-07-08T08:56:09;4.30;;;3.58;;
38513;SDS011;24282;48.400;10.808;2023-07-08T08:58:44;4.32;;;3.75;;
38513;SDS011;24282;48.400;10.808;2023-07-08T09:01:38;4.03;;;3.15;;
38513;SDS011;24282;48.400;10.808;2023-07-08T09:04:21;3.63;;;2.92;;
38513;SDS011;24282;48.400;10.808;2023-07-08T09:06:52;3.38;;;2.88;;
38513;SDS011;24282;48.400;10.808;2023-07-08T09:09:26;4.13;;;3.70;;
38513;SDS011;24282;48.400;10.808;2023-07-08T09:12:05;4.38;;;3.42;;
38513;SDS011;24282;48.400;10.808;2023-07-08T09:14:35;4.47;;;3.60;;
38513;SDS011;24282;48.400;10.808;2023-07-08T09:22:36;4.30;;;3.33;;
38513;SDS011;24282;48.400;10.808;2023-07-08T09:27:57;4.32;;;3.40;;
38513;SDS011;24282;48.400;10.808;2023-07-08T09:30:23;4.97;;;3.47;;
38513;SDS011;24282;48.400;10.808;2023-07-08T09:32:50;3.60;;;3.00;;
38513;SDS011;24282;48.400;10.808;2023-07-08T09:35:23;4.55;;;3.30;;
38513;SDS011;24282;48.400;10.808;2023-07-08T09:37:51;3.60;;;2.90;;
38513;SDS011;24282;48.400;10.808;2023-07-08T09:40:19;3.80;;;3.08;;
38513;SDS011;24282;48.400;10.808;2023-07-08T09:43:13;4.43;;;3.35;;
38513;SDS011;24282;48.400;10.808;2023-07-08T09:46:01;5.05;;;2.85;;
38513;SDS011;24282;48.400;10.808;2023-07-08T09:48:29;4.43;;;3.08;;
38513;SDS011;24282;48.400;10.808;2023-07-08T09:51:02;6.30;;;3.55;;
38513;SDS011;24282;48.400;10.808;2023-07-08T09:53:28;4.05;;;2.90;;
38513;SDS011;24282;48.400;10.808;2023-07-08T09:55:58;3.90;;;2.92;;
38513;SDS011;24282;48.400;10.808;2023-07-08T09:58:26;6.07;;;3.05;;
38513;SDS011;24282;48.400;10.808;2023-07-08T10:00:56;3.75;;;3.00;;
38513;SDS011;24282;48.400;10.808;2023-07-08T10:03:25;5.70;;;3.45;;
38513;SDS011;24282;48.400;10.808;2023-07-08T10:05:57;4.28;;;3.22;;
38513;SDS011;24282;48.400;10.808;2023-07-08T10:08:29;4.05;;;2.90;;
38513;SDS011;24282;48.400;10.808;2023-07-08T10:13:56;5.45;;;3.38;;
38513;SDS011;24282;48.400;10.808;2023-07-08T10:16:31;6.13;;;3.05;;
38513;SDS011;24282;48.400;10.808;2023-07-08T10:18:58;3.15;;;2.63;;
38513;SDS011;24282;48.400;10.808;2023-07-08T10:21:31;3.90;;;3.25;;
38513;SDS011;24282;48.400;10.808;2023-07-08T10:27:12;3.40;;;2.97;;
38513;SDS011;24282;48.400;10.808;2023-07-08T10:29:47;3.63;;;2.78;;
38513;SDS011;24282;48.400;10.808;2023-07-08T10:35:27;4.30;;;3.05;;
38513;SDS011;24282;48.400;10.808;2023-07-08T10:38:01;5.43;;;3.45;;
38513;SDS011;24282;48.400;10.808;2023-07-08T10:41:00;4.07;;;2.97;;
38513;SDS011;24282;48.400;10.808;2023-07-08T10:46:26;3.60;;;2.80;;
38513;SDS011;24282;48.400;10.808;2023-07-08T10:51:27;3.80;;;3.08;;
38513;SDS011;24282;48.400;10.808;2023-07-08T10:56:46;3.50;;;2.72;;
38513;SDS011;24282;48.400;10.808;2023-07-08T11:07:51;4.13;;;3.08;;
38513;SDS011;24282;48.400;10.808;2023-07-08T11:10:34;3.88;;;2.67;;
38513;SDS011;24282;48.400;10.808;2023-07-08T11:15:33;3.10;;;2.60;;
38513;SDS011;24282;48.400;10.808;2023-07-08T11:23:32;4.10;;;3.00;;
38513;SDS011;24282;48.400;10.808;2023-07-08T11:26:14;4.05;;;2.80;;
38513;SDS011;24282;48.400;10.808;2023-07-08T11:29:00;4.20;;;2.67;;
38513;SDS011;24282;48.400;10.808;2023-07-08T11:31:29;3.90;;;2.80;;
38513;SDS011;24282;48.400;10.808;2023-07-08T11:33:57;3.17;;;2.38;;
38513;SDS011;24282;48.400;10.808;2023-07-08T11:36:25;5.78;;;2.78;;
38513;SDS011;24282;48.400;10.808;2023-07-08T11:38:54;3.28;;;2.15;;
38513;SDS011;24282;48.400;10.808;2023-07-08T11:41:21;4.78;;;2.45;;
38513;SDS011;24282;48.400;10.808;2023-07-08T11:43:57;3.38;;;2.40;;
38513;SDS011;24282;48.400;10.808;2023-07-08T11:46:36;3.38;;;2.35;;
38513;SDS011;24282;48.400;10.808;2023-07-08T11:49:19;3.42;;;2.05;;
38513;SDS011;24282;48.400;10.808;2023-07-08T11:51:45;3.08;;;2.00;;
38513;SDS011;24282;48.400;10.808;2023-07-08T11:54:13;2.97;;;2.25;;
38513;SDS011;24282;48.400;10.808;2023-07-08T11:56:46;4.07;;;2.28;;
38513;SDS011;24282;48.400;10.808;2023-07-08T11:59:22;4.85;;;2.35;;
38513;SDS011;24282;48.400;10.808;2023-07-08T12:04:29;2.63;;;2.28;;
38513;SDS011;24282;48.400;10.808;2023-07-08T12:07:03;7.20;;;2.67;;
38513;SDS011;24282;48.400;10.808;2023-07-08T12:09:36;4.15;;;2.60;;
38513;SDS011;24282;48.400;10.808;2023-07-08T12:12:11;3.95;;;2.30;;
38513;SDS011;24282;48.400;10.808;2023-07-08T12:14:44;4.15;;;2.33;;
38513;SDS011;24282;48.400;10.808;2023-07-08T12:17:10;3.17;;;1.83;;
38513;SDS011;24282;48.400;10.808;2023-07-08T12:19:38;3.42;;;1.90;;
38513;SDS011;24282;48.400;10.808;2023-07-08T12:22:08;2.85;;;2.00;;
38513;SDS011;24282;48.400;10.808;2023-07-08T12:24:34;2.75;;;1.80;;
38513;SDS011;24282;48.400;10.808;2023-07-08T12:27:02;3.80;;;2.20;;
38513;SDS011;24282;48.400;10.808;2023-07-08T12:29:28;2.95;;;2.10;;
38513;SDS011;24282;48.400;10.808;2023-07-08T12:31:53;2.90;;;1.90;;
38513;SDS011;24282;48.400;10.808;2023-07-08T12:34:19;3.17;;;2.10;;
38513;SDS011;24282;48.400;10.808;2023-07-08T12:36:49;3.25;;;2.25;;
38513;SDS011;24282;48.400;10.808;2023-07-08T12:39:15;4.22;;;2.00;;
38513;SDS011;24282;48.400;10.808;2023-07-08T12:41:42;2.38;;;1.90;;
38513;SDS011;24282;48.400;10.808;2023-07-08T12:44:17;2.88;;;2.10;;
38513;SDS011;24282;48.400;10.808;2023-07-08T12:46:48;2.72;;;1.95;;
38513;SDS011;24282;48.400;10.808;2023-07-08T12:49:17;2.53;;;2.00;;
38513;SDS011;24282;48.400;10.808;2023-07-08T12:51:45;3.50;;;2.03;;
38513;SDS011;24282;48.400;10.808;2023-07-08T12:54:12;3.08;;;2.05;;
38513;SDS011;24282;48.400;10.808;2023-07-08T12:56:39;2.45;;;1.60;;
38513;SDS011;24282;48.400;10.808;2023-07-08T12:59:10;3.97;;;1.60;;
38513;SDS011;24282;48.400;10.808;2023-07-08T13:01:42;2.40;;;1.70;;
38513;SDS011;24282;48.400;10.808;2023-07-08T13:04:10;2.67;;;1.52;;
38513;SDS011;24282;48.400;10.808;2023-07-08T13:06:37;2.50;;;1.75;;
38513;SDS011;24282;48.400;10.808;2023-07-08T13:12:16;4.45;;;2.30;;
38513;SDS011;24282;48.400;10.808;2023-07-08T13:14:49;2.22;;;1.70;;
38513;SDS011;24282;48.400;10.808;2023-07-08T13:17:17;2.58;;;1.60;;
38513;SDS011;24282;48.400;10.808;2023-07-08T13:19:44;2.33;;;1.48;;
38513;SDS011;24282;48.400;10.808;2023-07-08T13:22:12;2.28;;;1.67;;
38513;SDS011;24282;48.400;10.808;2023-07-08T13:24:42;1.47;;;1.17;;
38513;SDS011;24282;48.400;10.808;2023-07-08T13:27:09;4.78;;;1.35;;
38513;SDS011;24282;48.400;10.808;2023-07-08T13:29:46;2.42;;;1.42;;
38513;SDS011;24282;48.400;10.808;2023-07-08T13:32:12;2.25;;;1.55;;
38513;SDS011;24282;48.400;10.808;2023-07-08T13:34:38;2.47;;;1.60;;
38513;SDS011;24282;48.400;10.808;2023-07-08T13:37:08;2.35;;;1.30;;
38513;SDS011;24282;48.400;10.808;2023-07-08T13:39:38;2.05;;;1.30;;
38513;SDS011;24282;48.400;10.808;2023-07-08T13:42:08;3.72;;;1.48;;
38513;SDS011;24282;48.400;10.808;2023-07-08T13:44:34;2.72;;;1.48;;
38513;SDS011;24282;48.400;10.808;2023-07-08T13:47:17;2.88;;;1.40;;
38513;SDS011;24282;48.400;10.808;2023-07-08T13:49:45;1.90;;;1.45;;
38513;SDS011;24282;48.400;10.808;2023-07-08T13:52:17;2.22;;;1.45;;
38513;SDS011;24282;48.400;10.808;2023-07-08T13:54:53;2.17;;;1.30;;
38513;SDS011;24282;48.400;10.808;2023-07-08T13:57:23;1.83;;;1.33;;
38513;SDS011;24282;48.400;10.808;2023-07-08T13:59:56;2.25;;;1.27;;
38513;SDS011;24282;48.400;10.808;2023-07-08T14:02:23;2.13;;;1.30;;
38513;SDS011;24282;48.400;10.808;2023-07-08T14:04:51;2.20;;;1.42;;
38513;SDS011;24282;48.400;10.808;2023-07-08T14:07:29;2.10;;;1.38;;
38513;SDS011;24282;48.400;10.808;2023-07-08T14:09:57;2.38;;;1.50;;
38513;SDS011;24282;48.400;10.808;2023-07-08T14:12:23;2.38;;;1.52;;
38513;SDS011;24282;48.400;10.808;2023-07-08T14:14:49;2.13;;;1.13;;
38513;SDS011;24282;48.400;10.808;2023-07-08T14:17:18;1.23;;;1.00;;
38513;SDS011;24282;48.400;10.808;2023-07-08T14:19:47;2.53;;;1.50;;
38513;SDS011;24282;48.400;10.808;2023-07-08T14:24:42;2.15;;;1.42;;
38513;SDS011;24282;48.400;10.808;2023-07-08T14:27:08;2.05;;;1.50;;
38513;SDS011;24282;48.400;10.808;2023-07-08T14:29:40;2.65;;;1.40;;
38513;SDS011;24282;48.400;10.808;2023-07-08T14:32:13;2.10;;;1.35;;
38513;SDS011;24282;48.400;10.808;2023-07-08T14:34:39;1.95;;;1.35;;
38513;SDS011;24282;48.400;10.808;2023-07-08T14:37:13;1.45;;;1.10;;
38513;SDS011;24282;48.400;10.808;2023-07-08T14:39:40;2.63;;;1.35;;
38513;SDS011;24282;48.400;10.808;2023-07-08T14:42:08;2.95;;;1.45;;
38513;SDS011;24282;48.400;10.808;2023-07-08T14:44:36;2.70;;;1.50;;
38513;SDS011;24282;48.400;10.808;2023-07-08T14:47:04;2.35;;;1.30;;
38513;SDS011;24282;48.400;10.808;2023-07-08T14:49:34;2.38;;;1.40;;
38513;SDS011;24282;48.400;10.808;2023-07-08T14:52:00;2.45;;;1.50;;
38513;SDS011;24282;48.400;10.808;2023-07-08T14:54:26;2.65;;;1.35;;
38513;SDS011;24282;48.400;10.808;2023-07-08T14:56:52;2.78;;;1.30;;
38513;SDS011;24282;48.400;10.808;2023-07-08T14:59:21;2.03;;;1.13;;
38513;SDS011;24282;48.400;10.808;2023-07-08T15:01:50;2.30;;;1.30;;
38513;SDS011;24282;48.400;10.808;2023-07-08T15:04:17;2.88;;;1.10;;
38513;SDS011;24282;48.400;10.808;2023-07-08T15:06:43;3.83;;;1.52;;
38513;SDS011;24282;48.400;10.808;2023-07-08T15:09:10;3.58;;;1.65;;
38513;SDS011;24282;48.400;10.808;2023-07-08T15:11:37;1.50;;;1.40;;
38513;SDS011;24282;48.400;10.808;2023-07-08T15:14:04;2.67;;;1.20;;
38513;SDS011;24282;48.400;10.808;2023-07-08T15:16:36;2.83;;;1.63;;
38513;SDS011;24282;48.400;10.808;2023-07-08T15:19:07;2.80;;;1.60;;
38513;SDS011;24282;48.400;10.808;2023-07-08T15:21:36;1.25;;;1.05;;
38513;SDS011;24282;48.400;10.808;2023-07-08T15:24:03;2.00;;;1.60;;
38513;SDS011;24282;48.400;10.808;2023-07-08T15:26:28;1.70;;;1.30;;
38513;SDS011;24282;48.400;10.808;2023-07-08T15:28:54;1.98;;;1.30;;
38513;SDS011;24282;48.400;10.808;2023-07-08T15:31:23;2.13;;;1.23;;
38513;SDS011;24282;48.400;10.808;2023-07-08T15:33:51;1.65;;;1.25;;
38513;SDS011;24282;48.400;10.808;2023-07-08T15:36:17;2.38;;;1.30;;